createdAt,value
2023-05-06T00:01:32.211Z,11.50
2023-05-06T00:03:59.432Z,11.47
2023-05-06T00:06:26.695Z,11.49
2023-05-06T00:08:55.202Z,11.56
2023-05-06T00:11:22.363Z,11.58
2023-05-06T00:13:49.564Z,11.60
2023-05-06T00:16:16.781Z,11.63
2023-05-06T00:18:44.030Z,11.64
2023-05-06T00:21:11.199Z,11.69
2023-05-06T00:23:38.339Z,11.75
2023-05-06T00:26:07.041Z,11.81
2023-05-06T00:28:34.226Z,11.78
2023-05-06T00:31:01.424Z,11.79
2023-05-06T00:33:28.565Z,11.86
2023-05-06T00:35:55.761Z,11.91
2023-05-06T00:38:23.135Z,11.91
2023-05-06T00:40:50.278Z,11.97
2023-05-06T00:43:18.934Z,12.03
2023-05-06T00:45:46.308Z,12.07
2023-05-06T00:48:14.525Z,12.04
2023-05-06T00:50:42.164Z,12.02
2023-05-06T00:53:10.106Z,11.98
2023-05-06T00:55:38.161Z,11.98
2023-05-06T00:58:05.807Z,11.98
2023-05-06T01:00:34.351Z,11.98
2023-05-06T01:03:01.885Z,11.98
2023-05-06T01:05:35.113Z,11.95
2023-05-06T01:08:12.408Z,11.91
2023-05-06T01:10:49.571Z,11.87
2023-05-06T01:13:21.481Z,11.83
2023-05-06T01:15:53.874Z,11.77
2023-05-06T01:18:22.373Z,11.73
2023-05-06T01:20:52.388Z,11.69
2023-05-06T01:23:21.893Z,11.58
2023-05-06T01:25:49.254Z,11.46
2023-05-06T01:28:17.500Z,11.36
2023-05-06T01:30:52.993Z,11.24
2023-05-06T01:33:32.308Z,11.24
2023-05-06T01:36:12.847Z,11.22
2023-05-06T01:38:52.552Z,11.23
2023-05-06T01:41:20.872Z,11.25
2023-05-06T01:43:49.204Z,11.24
2023-05-06T01:46:20.234Z,11.27
2023-05-06T01:48:50.147Z,11.27
2023-05-06T01:51:17.350Z,11.24
2023-05-06T01:53:45.842Z,11.24
2023-05-06T01:56:13.212Z,11.20
2023-05-06T01:58:40.389Z,11.17
2023-05-06T02:01:07.591Z,11.12
2023-05-06T02:03:34.858Z,11.13
2023-05-06T02:06:02.037Z,11.08
2023-05-06T02:08:32.067Z,11.06
2023-05-06T02:11:00.604Z,11.04
2023-05-06T02:13:28.192Z,11.04
2023-05-06T02:15:55.457Z,11.01
2023-05-06T02:18:23.563Z,11.05
2023-05-06T02:20:50.743Z,11.06
2023-05-06T02:23:17.982Z,11.06
2023-05-06T02:25:47.015Z,11.06
2023-05-06T02:28:15.558Z,11.06
2023-05-06T02:30:43.222Z,11.00
2023-05-06T02:33:10.362Z,11.04
2023-05-06T02:35:38.210Z,11.08
2023-05-06T02:38:05.444Z,11.08
2023-05-06T02:40:34.083Z,11.01
2023-05-06T02:43:01.261Z,11.05
2023-05-06T02:45:29.859Z,11.00
2023-05-06T02:47:57.093Z,10.97
2023-05-06T02:50:24.268Z,11.01
2023-05-06T02:52:51.440Z,11.03
2023-05-06T02:55:18.799Z,11.03
2023-05-06T02:57:45.981Z,10.99
2023-05-06T03:00:14.012Z,10.96
2023-05-06T03:02:42.579Z,11.01
2023-05-06T03:05:10.205Z,11.02
2023-05-06T03:07:38.191Z,11.09
2023-05-06T03:10:06.542Z,11.09
2023-05-06T03:12:36.638Z,11.11
2023-05-06T03:15:04.873Z,11.02
2023-05-06T03:17:32.369Z,11.07
2023-05-06T03:20:01.893Z,11.08
2023-05-06T03:22:29.926Z,11.10
2023-05-06T03:24:57.833Z,11.13
2023-05-06T03:27:26.693Z,11.14
2023-05-06T03:29:58.070Z,11.14
2023-05-06T03:32:26.098Z,11.11
2023-05-06T03:34:53.459Z,11.12
2023-05-06T03:37:23.152Z,11.16
2023-05-06T03:39:54.525Z,11.14
2023-05-06T03:42:25.440Z,11.16
2023-05-06T03:44:52.940Z,11.16
2023-05-06T03:47:20.306Z,11.17
2023-05-06T03:49:47.549Z,11.20
2023-05-06T03:52:15.176Z,11.15
2023-05-06T03:54:43.817Z,11.15
2023-05-06T03:57:10.983Z,11.15
2023-05-06T03:59:38.369Z,11.06
2023-05-06T04:02:06.887Z,10.95
2023-05-06T04:04:36.811Z,11.01
2023-05-06T04:07:04.108Z,10.96
2023-05-06T04:09:31.752Z,10.93
2023-05-06T04:12:02.543Z,11.01
2023-05-06T04:14:30.483Z,11.02
2023-05-06T04:16:58.340Z,11.01
2023-05-06T04:19:25.556Z,10.99
2023-05-06T04:21:52.978Z,11.06
2023-05-06T04:24:20.500Z,11.04
2023-05-06T04:26:47.765Z,11.07
2023-05-06T04:29:16.827Z,11.08
2023-05-06T04:31:54.673Z,11.09
2023-05-06T04:34:23.341Z,11.22
2023-05-06T04:36:50.561Z,11.18
2023-05-06T04:39:28.851Z,11.05
2023-05-06T04:41:57.473Z,11.06
2023-05-06T04:44:33.553Z,11.14
2023-05-06T04:47:01.675Z,11.04
2023-05-06T04:49:29.125Z,11.13
2023-05-06T04:51:56.340Z,11.15
2023-05-06T04:54:23.686Z,11.21
2023-05-06T04:56:51.170Z,11.27
2023-05-06T04:59:19.754Z,11.24
2023-05-06T05:01:49.451Z,11.28
2023-05-06T05:04:16.826Z,11.39
2023-05-06T05:06:44.039Z,11.43
2023-05-06T05:09:12.321Z,11.52
2023-05-06T05:11:42.809Z,11.42
2023-05-06T05:14:10.016Z,11.38
2023-05-06T05:16:37.963Z,11.42
2023-05-06T05:19:09.040Z,11.35
2023-05-06T05:21:36.780Z,11.29
2023-05-06T05:24:05.308Z,11.36
2023-05-06T05:26:32.482Z,11.45
2023-05-06T05:29:01.188Z,11.50
2023-05-06T05:31:29.215Z,11.68
2023-05-06T05:33:57.191Z,11.73
2023-05-06T05:36:26.100Z,11.80
2023-05-06T05:38:55.091Z,11.67
2023-05-06T05:41:24.826Z,11.59
2023-05-06T05:43:52.053Z,11.56
2023-05-06T05:46:19.374Z,11.51
2023-05-06T05:48:48.286Z,11.59
2023-05-06T05:51:15.471Z,11.74
2023-05-06T05:53:44.626Z,11.83
2023-05-06T05:56:12.598Z,11.84
2023-05-06T05:58:39.812Z,11.93
2023-05-06T06:01:07.027Z,11.85
2023-05-06T06:03:34.681Z,11.69
2023-05-06T06:06:01.988Z,11.64
2023-05-06T06:08:30.414Z,11.60
2023-05-06T06:11:00.063Z,11.70
2023-05-06T06:13:34.328Z,11.86
2023-05-06T06:16:01.825Z,12.01
2023-05-06T06:18:29.020Z,12.05
2023-05-06T06:20:56.229Z,12.28
2023-05-06T06:23:24.168Z,12.38
2023-05-06T06:25:51.499Z,12.68
2023-05-06T06:28:20.092Z,12.72
2023-05-06T06:30:47.658Z,13.04
2023-05-06T06:33:14.836Z,13.27
2023-05-06T06:35:42.004Z,13.27
2023-05-06T06:38:09.213Z,13.76
2023-05-06T06:40:36.366Z,14.01
2023-05-06T06:43:03.506Z,14.54
2023-05-06T06:45:51.627Z,14.79
2023-05-06T06:48:19.263Z,14.66
2023-05-06T06:50:46.509Z,14.57
2023-05-06T06:53:13.795Z,14.57
2023-05-06T06:55:43.218Z,14.74
2023-05-06T06:58:10.487Z,14.65
2023-05-06T07:00:37.850Z,14.70
2023-05-06T07:03:06.531Z,15.22
2023-05-06T07:05:33.886Z,15.66
2023-05-06T07:08:01.053Z,15.93
2023-05-06T07:10:28.225Z,16.22
2023-05-06T07:12:55.556Z,16.21
2023-05-06T07:15:24.217Z,16.81
2023-05-06T07:17:51.352Z,17.04
2023-05-06T07:20:20.004Z,17.38
2023-05-06T07:22:47.176Z,17.48
2023-05-06T07:25:14.380Z,17.66
2023-05-06T07:27:41.524Z,17.79
2023-05-06T07:30:09.410Z,17.97
2023-05-06T07:32:36.590Z,18.23
2023-05-06T07:35:04.404Z,18.20
2023-05-06T07:37:33.020Z,18.54
2023-05-06T07:40:00.219Z,18.46
2023-05-06T07:42:27.348Z,18.81
2023-05-06T07:44:54.506Z,18.83
2023-05-06T07:47:30.576Z,19.03
2023-05-06T07:49:58.476Z,18.97
2023-05-06T07:52:25.781Z,18.97
2023-05-06T07:54:54.377Z,19.21
2023-05-06T07:57:21.569Z,19.18
2023-05-06T07:59:49.678Z,19.39
2023-05-06T08:02:17.306Z,19.23
2023-05-06T08:04:45.176Z,19.01
2023-05-06T08:07:12.575Z,19.12
2023-05-06T08:09:39.733Z,19.49
2023-05-06T08:12:08.306Z,19.69
2023-05-06T08:14:35.546Z,19.70
2023-05-06T08:17:02.757Z,19.92
2023-05-06T08:19:29.894Z,20.10
2023-05-06T08:21:57.101Z,20.15
2023-05-06T08:24:24.315Z,20.75
2023-05-06T08:26:51.486Z,20.87
2023-05-06T08:29:20.079Z,21.02
2023-05-06T08:31:47.382Z,21.04
2023-05-06T08:34:14.637Z,21.07
2023-05-06T08:36:41.792Z,21.18
2023-05-06T08:39:09.042Z,21.24
2023-05-06T08:41:39.667Z,21.55
2023-05-06T08:44:08.242Z,21.41
2023-05-06T08:46:36.980Z,21.23
2023-05-06T08:49:04.133Z,21.52
2023-05-06T08:51:33.492Z,21.39
2023-05-06T08:54:01.636Z,21.21
2023-05-06T08:56:30.779Z,20.95
2023-05-06T08:58:58.247Z,20.91
2023-05-06T09:01:26.528Z,20.87
2023-05-06T09:03:56.772Z,21.17
2023-05-06T09:06:24.186Z,21.00
2023-05-06T09:08:51.962Z,20.36
2023-05-06T09:11:21.449Z,20.79
2023-05-06T09:13:50.032Z,21.09
2023-05-06T09:16:28.154Z,21.29
2023-05-06T09:18:57.079Z,21.74
2023-05-06T09:21:33.100Z,21.84
2023-05-06T09:24:02.456Z,21.65
2023-05-06T09:26:30.664Z,21.82
2023-05-06T09:28:58.373Z,22.07
2023-05-06T09:31:26.928Z,21.98
2023-05-06T09:33:57.654Z,21.79
2023-05-06T09:36:26.290Z,21.57
2023-05-06T09:38:53.774Z,21.51
2023-05-06T09:41:22.090Z,21.09
2023-05-06T09:43:51.560Z,21.40
2023-05-06T09:46:19.715Z,21.57
2023-05-06T09:48:49.749Z,21.84
2023-05-06T09:51:19.769Z,22.17
2023-05-06T09:53:48.048Z,21.72
2023-05-06T09:56:20.219Z,21.48
2023-05-06T09:58:51.163Z,21.14
2023-05-06T10:01:32.627Z,21.12
2023-05-06T10:04:03.731Z,21.30
2023-05-06T10:06:34.311Z,21.23
2023-05-06T10:09:02.572Z,21.19
2023-05-06T10:11:30.607Z,21.09
2023-05-06T10:13:59.563Z,20.79
2023-05-06T10:16:28.259Z,20.65
2023-05-06T10:18:56.346Z,20.73
2023-05-06T10:21:25.289Z,21.09
2023-05-06T10:24:01.829Z,21.33
2023-05-06T10:26:29.960Z,21.21
2023-05-06T10:28:59.981Z,21.65
2023-05-06T10:31:29.153Z,21.88
2023-05-06T10:34:00.794Z,21.97
2023-05-06T10:36:31.139Z,22.33
2023-05-06T10:39:00.871Z,21.86
2023-05-06T10:41:29.098Z,22.04
2023-05-06T10:43:57.347Z,22.09
2023-05-06T10:46:25.306Z,21.66
2023-05-06T10:49:17.572Z,21.20
2023-05-06T10:51:47.708Z,21.23
2023-05-06T10:54:25.005Z,21.49
2023-05-06T10:57:12.916Z,21.68
2023-05-06T10:59:45.484Z,21.59
2023-05-06T11:02:13.495Z,20.80
2023-05-06T11:04:40.797Z,20.76
2023-05-06T11:07:10.076Z,20.67
2023-05-06T11:09:57.023Z,20.70
2023-05-06T11:12:46.021Z,21.36
2023-05-06T11:15:20.985Z,21.82
2023-05-06T11:17:48.253Z,21.91
2023-05-06T11:20:20.612Z,22.05
2023-05-06T11:22:47.877Z,22.24
2023-05-06T11:25:39.779Z,21.90
2023-05-06T11:28:08.382Z,21.76
2023-05-06T11:30:37.158Z,21.65
2023-05-06T11:33:05.678Z,21.65
2023-05-06T11:35:36.504Z,21.80
2023-05-06T11:38:04.207Z,21.70
2023-05-06T11:40:33.062Z,21.79
2023-05-06T11:43:10.311Z,21.75
2023-05-06T11:45:41.492Z,21.47
2023-05-06T11:48:11.518Z,21.49
2023-05-06T11:50:38.820Z,21.91
2023-05-06T11:53:06.039Z,22.30
2023-05-06T11:55:35.328Z,22.70
2023-05-06T11:58:02.496Z,22.86
2023-05-06T12:00:29.730Z,23.02
2023-05-06T12:02:57.098Z,23.51
2023-05-06T12:05:24.444Z,23.77
2023-05-06T12:07:51.853Z,23.01
2023-05-06T12:10:19.444Z,22.52
2023-05-06T12:12:48.151Z,22.35
2023-05-06T12:15:15.670Z,22.25
2023-05-06T12:17:42.922Z,22.86
2023-05-06T12:20:11.944Z,22.82
2023-05-06T12:22:39.332Z,22.94
2023-05-06T12:25:13.940Z,23.08
2023-05-06T12:27:41.155Z,23.26
2023-05-06T12:30:11.052Z,23.78
2023-05-06T12:32:56.526Z,23.69
2023-05-06T12:35:27.660Z,23.63
2023-05-06T12:37:54.910Z,23.60
2023-05-06T12:40:22.172Z,24.12
2023-05-06T12:42:54.232Z,24.18
2023-05-06T12:45:23.800Z,23.78
2023-05-06T12:47:54.820Z,23.06
2023-05-06T12:50:32.613Z,23.04
2023-05-06T12:53:00.195Z,23.43
2023-05-06T12:55:27.392Z,23.86
2023-05-06T12:57:55.545Z,24.36
2023-05-06T13:00:25.327Z,24.57
2023-05-06T13:02:52.626Z,24.25
2023-05-06T13:05:19.916Z,24.23
2023-05-06T13:07:47.564Z,24.30
2023-05-06T13:10:15.006Z,24.29
2023-05-06T13:12:42.440Z,24.18
2023-05-06T13:15:10.425Z,24.13
2023-05-06T13:17:39.048Z,23.91
2023-05-06T13:20:07.511Z,23.80
2023-05-06T13:22:46.989Z,23.76
2023-05-06T13:25:20.885Z,23.66
2023-05-06T13:27:48.135Z,23.73
2023-05-06T13:30:15.491Z,23.63
2023-05-06T13:32:45.022Z,23.53
2023-05-06T13:35:12.430Z,23.63
2023-05-06T13:37:39.811Z,23.58
2023-05-06T13:40:08.312Z,22.97
2023-05-06T13:42:36.266Z,23.09
2023-05-06T13:45:03.651Z,22.93
2023-05-06T13:47:30.849Z,22.88
2023-05-06T13:49:59.406Z,23.61
2023-05-06T13:52:26.576Z,24.09
2023-05-06T13:54:53.783Z,24.42
2023-05-06T13:57:20.944Z,24.60
2023-05-06T13:59:48.087Z,24.23
2023-05-06T14:02:15.428Z,23.95
2023-05-06T14:04:42.685Z,23.62
2023-05-06T14:07:11.455Z,23.61
2023-05-06T14:09:38.635Z,23.30
2023-05-06T14:12:05.979Z,23.29
2023-05-06T14:14:33.144Z,23.26
2023-05-06T14:17:00.340Z,22.93
2023-05-06T14:19:27.498Z,22.51
2023-05-06T14:21:54.710Z,22.64
2023-05-06T14:24:23.239Z,22.84
2023-05-06T14:26:50.446Z,22.65
2023-05-06T14:29:17.667Z,22.67
2023-05-06T14:31:44.940Z,22.53
2023-05-06T14:34:12.192Z,22.30
2023-05-06T14:36:39.510Z,22.26
2023-05-06T14:39:06.699Z,22.41
2023-05-06T14:41:35.221Z,22.18
2023-05-06T14:44:02.364Z,22.47
2023-05-06T14:46:29.837Z,22.71
2023-05-06T14:48:57.269Z,23.14
2023-05-06T14:51:24.539Z,23.69
2023-05-06T14:53:51.690Z,23.82
2023-05-06T14:56:18.873Z,23.76
2023-05-06T14:58:47.361Z,23.45
2023-05-06T15:01:14.531Z,23.51
2023-05-06T15:03:41.736Z,23.36
2023-05-06T15:06:08.927Z,23.33
2023-05-06T15:08:36.178Z,23.47
2023-05-06T15:11:04.246Z,23.51
2023-05-06T15:13:31.630Z,23.56
2023-05-06T15:16:00.228Z,23.68
2023-05-06T15:18:27.407Z,23.93
2023-05-06T15:20:54.605Z,23.98
2023-05-06T15:23:21.849Z,24.11
2023-05-06T15:25:49.003Z,24.21
2023-05-06T15:28:16.271Z,24.20
2023-05-06T15:30:43.430Z,24.14
2023-05-06T15:33:11.977Z,23.93
2023-05-06T15:35:39.098Z,23.90
2023-05-06T15:38:06.257Z,23.84
2023-05-06T15:40:33.409Z,23.84
2023-05-06T15:43:00.708Z,23.88
2023-05-06T15:45:27.875Z,23.87
2023-05-06T15:47:55.076Z,23.76
2023-05-06T15:50:32.795Z,23.58
2023-05-06T15:53:00.951Z,23.46
2023-05-06T15:55:28.360Z,23.36
2023-05-06T15:57:56.036Z,23.19
2023-05-06T16:00:24.136Z,23.08
2023-05-06T16:02:51.461Z,23.13
2023-05-06T16:05:18.736Z,22.96
2023-05-06T16:07:47.328Z,22.85
2023-05-06T16:10:14.522Z,22.73
2023-05-06T16:12:41.747Z,22.55
2023-05-06T16:15:09.722Z,22.39
2023-05-06T16:17:36.877Z,22.34
2023-05-06T16:20:04.917Z,22.30
2023-05-06T16:22:32.112Z,22.18
2023-05-06T16:25:00.742Z,22.06
2023-05-06T16:27:27.893Z,21.80
2023-05-06T16:29:55.887Z,21.78
2023-05-06T16:32:23.553Z,21.78
2023-05-06T16:34:50.819Z,21.71
2023-05-06T16:37:18.031Z,21.57
2023-05-06T16:39:45.163Z,21.50
2023-05-06T16:42:13.699Z,21.39
2023-05-06T16:44:40.899Z,21.21
2023-05-06T16:47:08.300Z,21.07
2023-05-06T16:49:35.502Z,20.89
2023-05-06T16:52:02.741Z,20.73
2023-05-06T16:54:30.028Z,20.61
2023-05-06T16:56:57.186Z,20.48
2023-05-06T16:59:25.711Z,20.32
2023-05-06T17:01:52.859Z,20.05
2023-05-06T17:04:20.079Z,20.01
2023-05-06T17:06:47.454Z,19.89
2023-05-06T17:09:14.613Z,19.78
2023-05-06T17:11:41.783Z,19.68
2023-05-06T17:14:09.591Z,19.56
2023-05-06T17:16:38.282Z,19.44
2023-05-06T17:19:05.438Z,19.32
2023-05-06T17:21:32.625Z,19.28
2023-05-06T17:23:59.879Z,19.21
2023-05-06T17:26:27.041Z,19.15
2023-05-06T17:28:54.302Z,19.02
2023-05-06T17:31:21.576Z,18.92
2023-05-06T17:33:50.239Z,18.75
2023-05-06T17:36:18.121Z,18.66
2023-05-06T17:38:45.255Z,18.57
2023-05-06T17:41:12.467Z,18.45
2023-05-06T17:43:39.765Z,18.39
2023-05-06T17:46:07.020Z,18.23
2023-05-06T17:48:34.185Z,18.09
2023-05-06T17:51:02.816Z,18.07
2023-05-06T17:53:30.037Z,18.04
2023-05-06T17:55:57.172Z,18.04
2023-05-06T17:58:24.477Z,17.92
2023-05-06T18:00:51.619Z,17.90
2023-05-06T18:03:19.008Z,17.86
2023-05-06T18:05:46.258Z,17.81
2023-05-06T18:08:14.767Z,17.82
2023-05-06T18:10:41.938Z,17.60
2023-05-06T18:13:09.231Z,17.62
2023-05-06T18:15:36.641Z,17.52
2023-05-06T18:18:04.092Z,17.52
2023-05-06T18:20:32.296Z,17.54
2023-05-06T18:22:59.479Z,17.40
2023-05-06T18:25:28.046Z,17.35
2023-05-06T18:27:55.189Z,17.28
2023-05-06T18:30:22.325Z,17.22
2023-05-06T18:32:51.363Z,17.18
2023-05-06T18:35:19.665Z,17.10
2023-05-06T18:37:46.865Z,17.01
2023-05-06T18:40:14.609Z,17.00
2023-05-06T18:42:43.128Z,17.00
2023-05-06T18:45:11.487Z,17.07
2023-05-06T18:47:38.976Z,17.10
2023-05-06T18:50:07.554Z,17.10
2023-05-06T18:52:34.831Z,17.08
2023-05-06T18:55:01.989Z,17.03
2023-05-06T18:57:29.211Z,17.03
2023-05-06T18:59:57.717Z,17.02
2023-05-06T19:02:25.007Z,16.90
2023-05-06T19:04:52.201Z,16.82
2023-05-06T19:07:19.388Z,16.76
2023-05-06T19:09:46.562Z,16.69
2023-05-06T19:12:13.760Z,16.63
2023-05-06T19:14:40.908Z,16.58
2023-05-06T19:17:09.613Z,16.46
2023-05-06T19:19:36.802Z,16.43
2023-05-06T19:22:03.978Z,16.30
2023-05-06T19:24:31.143Z,16.34
2023-05-06T19:26:58.328Z,16.29
2023-05-06T19:29:25.455Z,16.20
2023-05-06T19:31:52.624Z,16.27
2023-05-06T19:34:21.168Z,16.23
2023-05-06T19:36:48.330Z,16.22
2023-05-06T19:39:15.534Z,16.21
2023-05-06T19:41:42.668Z,16.15
2023-05-06T19:44:09.821Z,16.14
2023-05-06T19:46:37.036Z,16.02
2023-05-06T19:49:04.294Z,15.97
2023-05-06T19:51:32.829Z,15.98
2023-05-06T19:53:59.986Z,15.91
2023-05-06T19:56:27.120Z,15.83
2023-05-06T19:58:54.284Z,15.85
2023-05-06T20:01:21.465Z,15.88
2023-05-06T20:03:48.850Z,15.96
2023-05-06T20:06:16.098Z,15.94
2023-05-06T20:08:44.603Z,15.93
2023-05-06T20:11:11.831Z,15.80
2023-05-06T20:13:38.993Z,15.84
2023-05-06T20:16:06.398Z,15.78
2023-05-06T20:18:33.673Z,15.78
2023-05-06T20:21:00.801Z,15.72
2023-05-06T20:23:27.983Z,15.69
2023-05-06T20:25:56.720Z,15.68
2023-05-06T20:28:23.868Z,15.67
2023-05-06T20:30:51.283Z,15.68
2023-05-06T20:33:18.491Z,15.74
2023-05-06T20:35:45.697Z,15.76
2023-05-06T20:38:12.877Z,15.80
2023-05-06T20:40:40.042Z,15.73
2023-05-06T20:43:08.615Z,15.78
2023-05-06T20:45:36.002Z,15.78
2023-05-06T20:48:03.236Z,15.74
2023-05-06T20:50:30.444Z,15.81
2023-05-06T20:52:57.874Z,15.81
2023-05-06T20:55:25.067Z,15.73
2023-05-06T20:57:52.271Z,15.69
2023-05-06T21:00:21.589Z,15.71
2023-05-06T21:02:48.853Z,15.70
2023-05-06T21:05:16.112Z,15.74
2023-05-06T21:07:43.347Z,15.74
2023-05-06T21:10:11.274Z,15.76
2023-05-06T21:12:38.625Z,15.75
2023-05-06T21:15:07.057Z,15.71
2023-05-06T21:17:35.821Z,15.68
2023-05-06T21:20:04.297Z,15.59
2023-05-06T21:22:33.409Z,15.53
2023-05-06T21:25:00.540Z,15.45
2023-05-06T21:27:27.757Z,15.41
2023-05-06T21:29:54.942Z,15.36
2023-05-06T21:32:22.120Z,15.37
2023-05-06T21:34:50.650Z,15.37
2023-05-06T21:37:17.788Z,15.35
2023-05-06T21:39:44.910Z,15.33
2023-05-06T21:42:12.117Z,15.34
2023-05-06T21:44:39.267Z,15.33
2023-05-06T21:47:06.429Z,15.34
2023-05-06T21:49:33.602Z,15.28
2023-05-06T21:52:02.131Z,15.29
2023-05-06T21:54:29.305Z,15.25
2023-05-06T21:56:56.440Z,15.25
2023-05-06T21:59:23.573Z,15.25
2023-05-06T22:01:50.774Z,15.28
2023-05-06T22:04:17.954Z,15.32
2023-05-06T22:06:45.162Z,15.30
2023-05-06T22:09:13.669Z,15.35
2023-05-06T22:11:40.838Z,15.41
2023-05-06T22:14:08.059Z,15.43
2023-05-06T22:16:35.710Z,15.32
2023-05-06T22:19:03.182Z,15.27
2023-05-06T22:21:30.543Z,15.26
2023-05-06T22:23:57.730Z,15.26
2023-05-06T22:26:26.734Z,15.27
2023-05-06T22:28:54.036Z,15.12
2023-05-06T22:31:21.300Z,15.20
2023-05-06T22:33:48.531Z,15.20
2023-05-06T22:36:15.710Z,15.09
2023-05-06T22:38:42.915Z,15.09
2023-05-06T22:41:10.123Z,15.03
2023-05-06T22:43:38.748Z,15.01
2023-05-06T22:46:05.971Z,14.94
2023-05-06T22:48:33.156Z,14.92
2023-05-06T22:51:00.363Z,15.00
2023-05-06T22:53:27.533Z,15.00
2023-05-06T22:55:54.757Z,15.03
2023-05-06T22:58:21.954Z,15.03
2023-05-06T23:00:50.506Z,15.04
2023-05-06T23:03:17.711Z,15.00
2023-05-06T23:05:44.965Z,15.00
2023-05-06T23:08:12.136Z,14.94
2023-05-06T23:10:39.371Z,14.93
2023-05-06T23:13:06.764Z,14.93
2023-05-06T23:15:34.014Z,14.88
2023-05-06T23:18:02.578Z,14.89
2023-05-06T23:20:29.911Z,14.79
2023-05-06T23:22:57.094Z,14.77
2023-05-06T23:25:24.254Z,14.75
2023-05-06T23:27:51.408Z,14.72
2023-05-06T23:30:18.621Z,14.61
2023-05-06T23:32:45.837Z,14.63
2023-05-06T23:35:14.551Z,14.65
2023-05-06T23:37:41.994Z,14.65
2023-05-06T23:40:09.887Z,14.58
2023-05-06T23:42:37.178Z,14.59
2023-05-06T23:45:05.058Z,14.60
2023-05-06T23:47:32.367Z,14.66
2023-05-06T23:49:59.689Z,14.54
2023-05-06T23:52:28.426Z,14.60
2023-05-06T23:54:55.580Z,14.57
2023-05-06T23:57:22.738Z,14.47
2023-05-06T23:59:49.920Z,14.46
